Time;durP1;ratioP1;P1;durP2;ratioP2;P2;SDS_P1;SDS_P2;PMS_P1;PMS_P2;Temp;Humidity;BMP_temperature;BMP_pressure;BME280_temperature;BME280_humidity;BME280_pressure;Samples;Min_cycle;Max_cycle;Signal;HPM_P1;HPM_P2
2022/12/13 00:00:13;;;;;;;;;;;-0.20;99.90;;;;;;6157063;23;20394;-78
2022/12/13 00:02:42;;;;;;;;;;;-0.10;99.90;;;;;;6157537;23;20228;-76
2022/12/13 00:05:08;;;;;;;;;;;-0.30;99.90;;;;;;6156851;23;19987;-76
2022/12/13 00:07:34;;;;;;;;;;;-0.30;99.90;;;;;;6156913;23;20313;-76
2022/12/13 00:09:59;;;;;;;;;;;-0.40;99.90;;;;;;6157088;23;19908;-76
2022/12/13 00:12:25;;;;;;;;;;;-0.40;99.90;;;;;;6157070;23;19911;-75
2022/12/13 00:14:50;;;;;;;;;;;-0.30;99.90;;;;;;6157200;23;19931;-75
2022/12/13 00:17:16;;;;;;;;;;;-0.30;99.90;;;;;;6157088;23;20324;-77
2022/12/13 00:19:42;;;;;;;;;;;-0.40;99.90;;;;;;6155430;23;19991;-77
2022/12/13 00:22:07;;;;;;;;;;;-0.40;99.90;;;;;;6157027;23;19912;-75
2022/12/13 00:24:33;;;;;;;;;;;-0.30;99.90;;;;;;6156906;23;19909;-77
2022/12/13 00:26:58;;;;;;;;;;;-0.40;99.90;;;;;;6157342;23;19959;-74
2022/12/13 00:29:24;;;;;;;;;;;-0.40;99.90;;;;;;6157071;23;19936;-76
2022/12/13 00:31:50;;;;;;;;;;;-0.40;99.90;;;;;;6156866;23;19912;-76
2022/12/13 00:34:16;;;;;;;;;;;-0.40;99.90;;;;;;6156912;23;20247;-77
2022/12/13 00:36:41;;;;;;;;;;;-0.40;99.90;;;;;;6156219;23;19917;-76
2022/12/13 00:39:07;;;;;;;;;;;-0.40;99.90;;;;;;6157011;23;19955;-76
2022/12/13 00:41:34;;;;;;;;;;;-0.30;99.90;;;;;;6156943;23;20320;-76
2022/12/13 00:44:01;;;;;;;;;;;-0.40;99.90;;;;;;6156913;23;19905;-76
2022/12/13 00:46:27;;;;;;;;;;;-0.50;99.90;;;;;;6157181;23;20248;-74
2022/12/13 00:48:57;;;;;;;;;;;-0.40;99.90;;;;;;6157013;23;19905;-75
2022/12/13 00:51:23;;;;;;;;;;;-0.40;99.90;;;;;;6156831;23;20285;-76
2022/12/13 00:53:48;;;;;;;;;;;-0.40;99.90;;;;;;6156861;23;19967;-76
2022/12/13 00:56:20;;;;;;;;;;;-0.30;99.90;;;;;;6156867;23;19904;-76
2022/12/13 00:58:45;;;;;;;;;;;-0.20;99.90;;;;;;6155006;23;19955;-76
2022/12/13 01:01:13;;;;;;;;;;;-0.30;99.90;;;;;;6156671;23;19904;-76
2022/12/13 01:03:39;;;;;;;;;;;-0.40;99.90;;;;;;6155231;23;19987;-76
2022/12/13 01:06:09;;;;;;;;;;;-0.50;99.90;;;;;;6155235;23;20078;-76
2022/12/13 01:08:34;;;;;;;;;;;-0.40;99.90;;;;;;6156840;23;19904;-76
2022/12/13 01:11:00;;;;;;;;;;;-0.30;99.90;;;;;;6156873;23;19912;-76
2022/12/13 01:13:26;;;;;;;;;;;-0.20;99.90;;;;;;6156867;23;19904;-77
2022/12/13 01:15:51;;;;;;;;;;;-0.10;99.90;;;;;;6156914;23;19959;-77
2022/12/13 01:18:17;;;;;;;;;;;-0.10;99.90;;;;;;6157308;23;19904;-77
2022/12/13 01:21:01;;;;;;;;;;;-0.10;99.90;;;;;;6156898;23;19904;-76
2022/12/13 01:23:28;;;;;;;;;;;-0.10;99.90;;;;;;6156467;23;19936;-76
2022/12/13 01:25:54;;;;;;;;;;;-0.10;99.90;;;;;;6156440;23;19909;-75
2022/12/13 01:28:19;;;;;;;;;;;-0.20;99.90;;;;;;6156620;23;20247;-78
2022/12/13 01:30:52;;;;;;;;;;;-0.30;99.90;;;;;;6156617;23;19948;-77
2022/12/13 01:33:17;;;;;;;;;;;-0.40;99.90;;;;;;6156885;23;19905;-77
2022/12/13 01:35:43;;;;;;;;;;;-0.30;99.90;;;;;;6156151;23;19922;-77
2022/12/13 01:38:09;;;;;;;;;;;-0.30;99.90;;;;;;6154961;23;20338;-76
2022/12/13 01:40:41;;;;;;;;;;;-0.30;99.90;;;;;;6156621;23;19983;-76
2022/12/13 01:43:08;;;;;;;;;;;-0.40;99.90;;;;;;6156645;23;20244;-77
2022/12/13 01:45:33;;;;;;;;;;;-0.30;99.90;;;;;;6156633;23;19909;-75
2022/12/13 01:48:04;;;;;;;;;;;-0.20;99.90;;;;;;6155310;23;19983;-75
2022/12/13 01:50:31;;;;;;;;;;;-0.30;99.90;;;;;;6158466;23;19913;-76
2022/12/13 01:52:58;;;;;;;;;;;-0.30;99.90;;;;;;6158431;23;20287;-76
2022/12/13 01:55:25;;;;;;;;;;;-0.20;99.90;;;;;;6158532;23;19991;-75
2022/12/13 01:57:52;;;;;;;;;;;-0.30;99.90;;;;;;6158140;23;19909;-76
2022/12/13 02:00:18;;;;;;;;;;;-0.20;99.90;;;;;;6158362;23;19904;-76
2022/12/13 02:02:44;;;;;;;;;;;-0.10;99.90;;;;;;6154859;23;19904;-75
2022/12/13 02:05:10;;;;;;;;;;;-0.20;99.90;;;;;;6158451;23;19909;-76
2022/12/13 02:07:36;;;;;;;;;;;-0.20;99.90;;;;;;6158449;23;19943;-77
2022/12/13 02:10:04;;;;;;;;;;;-0.10;99.90;;;;;;6158188;23;19954;-77
2022/12/13 02:12:31;;;;;;;;;;;-0.20;99.90;;;;;;6158020;23;19912;-76
2022/12/13 02:14:59;;;;;;;;;;;-0.30;99.90;;;;;;6158157;23;19986;-76
2022/12/13 02:17:34;;;;;;;;;;;-0.40;99.90;;;;;;6157913;23;19964;-76
2022/12/13 02:20:18;;;;;;;;;;;-0.40;99.90;;;;;;6158293;23;19908;-77
2022/12/13 02:22:44;;;;;;;;;;;-0.50;99.90;;;;;;6158121;23;19905;-75
2022/12/13 02:25:09;;;;;;;;;;;-0.50;99.90;;;;;;6157829;23;19951;-77
2022/12/13 02:27:53;;;;;;;;;;;-0.50;99.90;;;;;;6158117;23;19905;-76
2022/12/13 02:30:22;;;;;;;;;;;-0.40;99.90;;;;;;6157973;23;19909;-76
2022/12/13 02:32:47;;;;;;;;;;;-0.40;99.90;;;;;;6156327;23;19905;-77
2022/12/13 02:35:16;;;;;;;;;;;-0.20;99.90;;;;;;6157599;23;19967;-75
2022/12/13 02:38:00;;;;;;;;;;;-0.10;99.90;;;;;;6157766;23;19904;-77
2022/12/13 02:40:30;;;;;;;;;;;0.00;99.90;;;;;;6157921;23;19904;-75
2022/12/13 02:42:59;;;;;;;;;;;0.00;99.90;;;;;;6158195;23;19905;-75
2022/12/13 02:45:30;;;;;;;;;;;-0.10;99.90;;;;;;6157914;23;19909;-77
2022/12/13 02:47:57;;;;;;;;;;;-0.10;99.90;;;;;;6157752;23;20319;-76
2022/12/13 02:50:23;;;;;;;;;;;0.00;99.90;;;;;;6157796;23;19972;-76
2022/12/13 02:52:50;;;;;;;;;;;-0.10;99.90;;;;;;6157875;23;19912;-76
2022/12/13 02:55:16;;;;;;;;;;;-0.10;99.90;;;;;;6156219;23;19926;-76
2022/12/13 02:57:43;;;;;;;;;;;0.00;99.90;;;;;;6157885;23;20379;-77
2022/12/13 03:00:14;;;;;;;;;;;-0.20;99.90;;;;;;6157723;23;20255;-76
2022/12/13 03:02:52;;;;;;;;;;;-0.20;99.90;;;;;;6157513;23;19932;-76
2022/12/13 03:08:17;;;;;;;;;;;0.00;99.90;;;;;;6157245;23;20366;-75
2022/12/13 03:10:48;;;;;;;;;;;-0.10;99.90;;;;;;6157339;23;19905;-77
2022/12/13 03:13:39;;;;;;;;;;;-0.10;99.90;;;;;;6155902;23;19984;-75
2022/12/13 03:16:10;;;;;;;;;;;-0.20;99.90;;;;;;6157788;23;19935;-76
2022/12/13 03:18:37;;;;;;;;;;;-0.20;99.90;;;;;;6157489;23;19905;-76
2022/12/13 03:21:04;;;;;;;;;;;-0.30;99.90;;;;;;6157699;23;19904;-75
2022/12/13 03:23:30;;;;;;;;;;;-0.30;99.90;;;;;;6157537;23;19909;-76
2022/12/13 03:25:58;;;;;;;;;;;-0.30;99.90;;;;;;6157549;23;20320;-76
2022/12/13 03:28:23;;;;;;;;;;;-0.30;99.90;;;;;;6157702;23;19980;-77
2022/12/13 03:30:49;;;;;;;;;;;-0.40;99.90;;;;;;6157472;23;19986;-76
2022/12/13 03:33:15;;;;;;;;;;;-0.40;99.90;;;;;;6155875;23;20362;-76
2022/12/13 03:35:41;;;;;;;;;;;-0.40;99.90;;;;;;6156923;23;19940;-76
2022/12/13 03:38:06;;;;;;;;;;;-0.40;99.90;;;;;;6157370;23;19980;-76
2022/12/13 03:40:32;;;;;;;;;;;-0.30;99.90;;;;;;6157533;23;20229;-76
2022/12/13 03:42:58;;;;;;;;;;;-0.30;99.90;;;;;;6157577;23;19904;-76
2022/12/13 03:45:24;;;;;;;;;;;-0.20;99.90;;;;;;6157190;23;20324;-77
2022/12/13 03:47:50;;;;;;;;;;;0.00;99.90;;;;;;6157504;23;20291;-76
2022/12/13 03:50:15;;;;;;;;;;;0.00;99.90;;;;;;6157232;23;19905;-76
2022/12/13 03:52:41;;;;;;;;;;;0.10;99.90;;;;;;6157250;23;19905;-76
2022/12/13 03:55:06;;;;;;;;;;;0.10;99.90;;;;;;6157385;23;19912;-76
2022/12/13 03:57:32;;;;;;;;;;;0.20;99.90;;;;;;6157180;23;19909;-77
2022/12/13 03:59:58;;;;;;;;;;;0.20;99.90;;;;;;6157226;23;19979;-76
2022/12/13 04:02:23;;;;;;;;;;;-0.10;99.90;;;;;;6157066;23;20310;-76
2022/12/13 04:04:49;;;;;;;;;;;-0.20;99.90;;;;;;6157221;23;19919;-77
2022/12/13 04:07:14;;;;;;;;;;;-0.20;99.90;;;;;;6155573;23;19932;-77
2022/12/13 04:09:40;;;;;;;;;;;-0.10;99.90;;;;;;6157308;23;19908;-77
2022/12/13 04:14:50;;;;;;;;;;;0.10;99.90;;;;;;6156687;23;19990;-77
2022/12/13 04:17:15;;;;;;;;;;;0.20;99.90;;;;;;6157090;23;19905;-76
2022/12/13 04:19:41;;;;;;;;;;;0.20;99.90;;;;;;6157280;23;19905;-76
2022/12/13 04:22:06;;;;;;;;;;;0.10;99.90;;;;;;6157046;23;19905;-76
2022/12/13 04:24:32;;;;;;;;;;;0.20;99.90;;;;;;6155161;23;19909;-76
2022/12/13 04:26:58;;;;;;;;;;;0.00;99.90;;;;;;6156998;23;20280;-76
2022/12/13 04:29:23;;;;;;;;;;;0.00;99.90;;;;;;6157111;23;19944;-77
2022/12/13 04:31:49;;;;;;;;;;;0.00;99.90;;;;;;6157184;23;19912;-77
2022/12/13 04:34:15;;;;;;;;;;;0.00;99.90;;;;;;6156874;23;19908;-76
2022/12/13 04:36:40;;;;;;;;;;;-0.10;99.90;;;;;;6156358;23;20366;-76
2022/12/13 04:39:06;;;;;;;;;;;-0.10;99.90;;;;;;6157287;23;19905;-77
2022/12/13 04:41:35;;;;;;;;;;;-0.10;99.90;;;;;;6157340;23;19905;-74
2022/12/13 04:44:01;;;;;;;;;;;0.00;99.90;;;;;;6156862;23;19951;-75
2022/12/13 04:46:27;;;;;;;;;;;0.00;99.90;;;;;;6156953;23;20324;-75
2022/12/13 04:48:52;;;;;;;;;;;0.10;99.90;;;;;;6156892;23;19933;-76
2022/12/13 04:51:18;;;;;;;;;;;0.00;99.90;;;;;;6156898;23;19905;-76
2022/12/13 04:53:44;;;;;;;;;;;0.00;99.90;;;;;;6155322;23;20243;-75
2022/12/13 04:56:09;;;;;;;;;;;-0.10;99.90;;;;;;6155329;23;19912;-76
2022/12/13 04:58:35;;;;;;;;;;;-0.10;99.90;;;;;;6156672;23;19905;-75
2022/12/13 05:01:01;;;;;;;;;;;-0.10;99.90;;;;;;6156733;23;20213;-76
2022/12/13 05:03:27;;;;;;;;;;;-0.20;99.90;;;;;;6157001;23;19983;-77
2022/12/13 05:05:52;;;;;;;;;;;-0.10;99.90;;;;;;6156948;23;20236;-75
2022/12/13 05:08:18;;;;;;;;;;;-0.10;99.90;;;;;;6156681;23;19984;-77
2022/12/13 05:10:44;;;;;;;;;;;-0.10;99.90;;;;;;6156812;23;20332;-74
2022/12/13 05:13:10;;;;;;;;;;;-0.20;99.90;;;;;;6156457;23;19905;-76
2022/12/13 05:15:35;;;;;;;;;;;-0.10;99.90;;;;;;6157168;23;20244;-77
2022/12/13 05:18:02;;;;;;;;;;;-0.10;99.90;;;;;;6156840;23;19904;-77
2022/12/13 05:20:27;;;;;;;;;;;-0.10;99.90;;;;;;6156881;23;20239;-77
2022/12/13 05:22:56;;;;;;;;;;;0.00;99.90;;;;;;6155343;23;19932;-75
2022/12/13 05:25:22;;;;;;;;;;;0.00;99.90;;;;;;6158531;23;19909;-77
2022/12/13 05:27:48;;;;;;;;;;;0.00;99.90;;;;;;6158458;23;19904;-76
2022/12/13 05:30:14;;;;;;;;;;;-0.10;99.90;;;;;;6156997;23;19905;-77
2022/12/13 05:32:40;;;;;;;;;;;0.00;99.90;;;;;;6158588;23;19904;-74
2022/12/13 05:35:05;;;;;;;;;;;0.00;99.90;;;;;;6158209;23;20336;-77
2022/12/13 05:37:31;;;;;;;;;;;-0.10;99.90;;;;;;6158817;23;19913;-77
2022/12/13 05:39:57;;;;;;;;;;;-0.20;99.90;;;;;;6158757;23;19909;-75
2022/12/13 05:42:22;;;;;;;;;;;-0.20;99.90;;;;;;6158496;23;19905;-75
2022/12/13 05:44:48;;;;;;;;;;;-0.20;99.90;;;;;;6158345;23;19909;-77
2022/12/13 05:47:13;;;;;;;;;;;-0.40;99.90;;;;;;6158423;23;19904;-75
2022/12/13 05:49:39;;;;;;;;;;;-0.50;99.90;;;;;;6158355;23;19957;-76
2022/12/13 05:52:05;;;;;;;;;;;-0.70;99.90;;;;;;6156596;23;19927;-75
2022/12/13 05:54:30;;;;;;;;;;;-0.90;99.90;;;;;;6158248;23;19936;-77
2022/12/13 05:56:56;;;;;;;;;;;-1.00;99.90;;;;;;6159036;23;19904;-76
2022/12/13 05:59:22;;;;;;;;;;;-1.00;99.90;;;;;;6158625;23;19911;-76
2022/12/13 06:01:47;;;;;;;;;;;-1.00;99.90;;;;;;6158497;23;19905;-76
2022/12/13 06:04:13;;;;;;;;;;;-1.10;99.90;;;;;;6158006;23;19915;-77
2022/12/13 06:06:38;;;;;;;;;;;-1.10;99.90;;;;;;6158161;23;19909;-76
2022/12/13 06:09:04;;;;;;;;;;;-1.10;99.90;;;;;;6156619;23;20332;-77
2022/12/13 06:11:30;;;;;;;;;;;-1.10;99.90;;;;;;6158086;23;19904;-77
2022/12/13 06:13:55;;;;;;;;;;;-1.00;99.90;;;;;;6156727;23;19908;-75
2022/12/13 06:16:21;;;;;;;;;;;-1.10;99.90;;;;;;6158489;23;20350;-76
2022/12/13 06:18:46;;;;;;;;;;;-1.10;99.90;;;;;;6158063;23;19968;-76
2022/12/13 06:21:12;;;;;;;;;;;-1.10;99.90;;;;;;6157948;23;19912;-76
2022/12/13 06:23:38;;;;;;;;;;;-1.10;99.90;;;;;;6157975;23;19905;-75
2022/12/13 06:26:04;;;;;;;;;;;-1.20;99.90;;;;;;6157976;23;19937;-76
2022/12/13 06:28:30;;;;;;;;;;;-1.30;99.90;;;;;;6157876;23;19909;-76
2022/12/13 06:30:58;;;;;;;;;;;-1.30;99.90;;;;;;6158054;23;19912;-76
2022/12/13 06:33:23;;;;;;;;;;;-1.30;99.90;;;;;;6157836;23;19905;-77
2022/12/13 06:35:51;;;;;;;;;;;-1.30;99.90;;;;;;6157747;23;20320;-75
2022/12/13 06:38:16;;;;;;;;;;;-1.20;99.90;;;;;;6158165;23;19911;-77
2022/12/13 06:40:42;;;;;;;;;;;-1.00;99.90;;;;;;6157800;23;20251;-77
2022/12/13 06:43:08;;;;;;;;;;;-1.00;99.90;;;;;;6157599;23;19964;-77
2022/12/13 06:45:37;;;;;;;;;;;-0.90;99.90;;;;;;6157907;23;19963;-75
2022/12/13 06:48:03;;;;;;;;;;;-0.90;99.90;;;;;;6157868;23;19933;-76
2022/12/13 06:50:28;;;;;;;;;;;-0.80;99.90;;;;;;6157968;23;19905;-76
2022/12/13 06:52:54;;;;;;;;;;;-0.60;99.90;;;;;;6157962;23;19975;-75
2022/12/13 06:55:19;;;;;;;;;;;-0.60;99.90;;;;;;6157735;23;19991;-76
2022/12/13 06:57:45;;;;;;;;;;;-0.70;99.90;;;;;;6157530;23;19904;-75
2022/12/13 07:00:11;;;;;;;;;;;-0.80;99.90;;;;;;6157825;23;20358;-76
2022/12/13 07:02:39;;;;;;;;;;;-0.70;99.90;;;;;;6157537;23;19911;-76
2022/12/13 07:05:05;;;;;;;;;;;-0.60;99.90;;;;;;6157561;23;19909;-76
2022/12/13 07:07:30;;;;;;;;;;;-0.60;99.90;;;;;;6157982;23;19905;-76
2022/12/13 07:09:56;;;;;;;;;;;-0.50;99.90;;;;;;6157860;23;19912;-77
2022/12/13 07:12:22;;;;;;;;;;;-0.70;99.90;;;;;;6158349;23;19905;-76
2022/12/13 07:14:47;;;;;;;;;;;-0.70;99.90;;;;;;6157502;23;20240;-75
2022/12/13 07:17:13;;;;;;;;;;;-0.50;99.90;;;;;;6157831;23;19912;-75
2022/12/13 07:19:39;;;;;;;;;;;-0.50;99.90;;;;;;6157735;23;20442;-77
2022/12/13 07:22:04;;;;;;;;;;;-0.50;99.90;;;;;;6157629;23;20309;-76
2022/12/13 07:24:30;;;;;;;;;;;-0.40;99.90;;;;;;6157443;23;19916;-76
2022/12/13 07:26:55;;;;;;;;;;;-0.40;99.90;;;;;;6158025;23;20312;-76
2022/12/13 07:29:21;;;;;;;;;;;-0.50;99.90;;;;;;6157605;23;19997;-76
2022/12/13 07:31:47;;;;;;;;;;;-0.70;99.90;;;;;;6157648;23;19905;-75
2022/12/13 07:34:12;;;;;;;;;;;-0.80;99.90;;;;;;6157291;23;20225;-76
2022/12/13 07:36:38;;;;;;;;;;;-0.90;99.90;;;;;;6156984;23;19917;-78
2022/12/13 07:39:03;;;;;;;;;;;-0.90;99.90;;;;;;6155725;23;19943;-75
2022/12/13 07:41:29;;;;;;;;;;;-0.90;99.90;;;;;;6157717;23;19912;-76
2022/12/13 07:43:54;;;;;;;;;;;-0.80;99.90;;;;;;6157308;23;20300;-75
2022/12/13 07:46:20;;;;;;;;;;;-0.90;99.90;;;;;;6156965;23;19910;-77
2022/12/13 07:48:46;;;;;;;;;;;-0.90;99.90;;;;;;6155575;23;19936;-76
2022/12/13 07:51:12;;;;;;;;;;;-0.90;99.90;;;;;;6157809;23;19932;-76
2022/12/13 07:53:41;;;;;;;;;;;-0.90;99.90;;;;;;6157312;23;19905;-77
2022/12/13 07:56:08;;;;;;;;;;;-0.80;99.90;;;;;;6157176;23;19979;-77
2022/12/13 07:58:34;;;;;;;;;;;-0.60;99.90;;;;;;6157026;23;19928;-77
2022/12/13 08:01:01;;;;;;;;;;;-0.40;99.90;;;;;;6157160;23;19905;-76
2022/12/13 08:03:28;;;;;;;;;;;-0.20;99.90;;;;;;6155506;23;19905;-75
2022/12/13 08:06:00;;;;;;;;;;;-0.20;99.90;;;;;;6156516;23;19909;-75
2022/12/13 08:08:26;;;;;;;;;;;-0.20;99.90;;;;;;6156905;23;19904;-77
2022/12/13 08:10:52;;;;;;;;;;;-0.40;99.90;;;;;;6157092;23;20000;-77
2022/12/13 08:13:17;;;;;;;;;;;-0.50;99.90;;;;;;6156663;23;19957;-76
2022/12/13 08:15:43;;;;;;;;;;;-0.40;99.90;;;;;;6156889;23;20236;-77
2022/12/13 08:18:08;;;;;;;;;;;-0.10;99.90;;;;;;6155505;23;19928;-76
2022/12/13 08:20:34;;;;;;;;;;;0.00;99.90;;;;;;6157117;23;19912;-76
2022/12/13 08:22:59;;;;;;;;;;;0.20;99.90;;;;;;6156962;23;19908;-76
2022/12/13 08:25:25;;;;;;;;;;;0.60;99.90;;;;;;6155346;23;20248;-75
2022/12/13 08:27:51;;;;;;;;;;;0.80;99.90;;;;;;6156907;23;19931;-75
2022/12/13 08:30:17;;;;;;;;;;;0.80;99.90;;;;;;6155349;23;19927;-75
2022/12/13 08:32:42;;;;;;;;;;;1.10;99.90;;;;;;6156904;23;19987;-77
2022/12/13 08:35:08;;;;;;;;;;;1.20;99.90;;;;;;6156707;23;20239;-76
2022/12/13 08:37:34;;;;;;;;;;;1.20;99.90;;;;;;6157542;23;19912;-77
2022/12/13 08:39:59;;;;;;;;;;;1.10;99.90;;;;;;6156987;23;19909;-76
2022/12/13 08:42:25;;;;;;;;;;;0.80;99.90;;;;;;6155286;23;19927;-76
2022/12/13 08:44:52;;;;;;;;;;;0.50;99.90;;;;;;6156948;23;19955;-76
2022/12/13 08:47:18;;;;;;;;;;;0.40;99.90;;;;;;6157296;23;19971;-76
2022/12/13 08:49:44;;;;;;;;;;;0.50;99.90;;;;;;6157254;23;20324;-75
2022/12/13 08:52:09;;;;;;;;;;;0.50;99.90;;;;;;6155347;23;19959;-73
2022/12/13 08:54:35;;;;;;;;;;;0.60;99.90;;;;;;6156894;23;19905;-76
2022/12/13 08:57:01;;;;;;;;;;;0.90;99.90;;;;;;6155553;23;19905;-75
2022/12/13 08:59:26;;;;;;;;;;;1.20;99.90;;;;;;6159027;23;19912;-75
2022/12/13 09:01:52;;;;;;;;;;;1.00;99.90;;;;;;6158854;23;19904;-74
2022/12/13 09:04:18;;;;;;;;;;;0.90;99.90;;;;;;6158698;23;19936;-77
2022/12/13 09:06:43;;;;;;;;;;;1.00;99.90;;;;;;6158769;23;20331;-76
2022/12/13 09:09:09;;;;;;;;;;;1.00;99.90;;;;;;6159072;23;19935;-77
2022/12/13 09:11:34;;;;;;;;;;;1.10;99.90;;;;;;6158693;23;19927;-76
2022/12/13 09:14:00;;;;;;;;;;;1.20;99.90;;;;;;6158602;23;19905;-77
2022/12/13 09:16:25;;;;;;;;;;;1.20;99.90;;;;;;6158901;23;20311;-75
2022/12/13 09:18:51;;;;;;;;;;;1.10;99.90;;;;;;6157033;23;19917;-75
2022/12/13 09:21:18;;;;;;;;;;;1.20;99.90;;;;;;6158446;23;19984;-74
2022/12/13 09:23:43;;;;;;;;;;;1.20;99.90;;;;;;6158710;23;19905;-73
2022/12/13 09:26:10;;;;;;;;;;;1.40;99.90;;;;;;6156967;23;19991;-73
2022/12/13 09:28:37;;;;;;;;;;;1.90;99.90;;;;;;6158602;23;19904;-74
2022/12/13 09:31:06;;;;;;;;;;;2.50;99.10;;;;;;6158893;23;19905;-74
2022/12/13 09:33:31;;;;;;;;;;;3.60;73.40;;;;;;6157025;23;20225;-75
2022/12/13 09:35:57;;;;;;;;;;;5.70;16.50;;;;;;6158258;23;19920;-74
2022/12/13 09:38:23;;;;;;;;;;;7.10;1.00;;;;;;6158714;23;19936;-74
2022/12/13 09:40:50;;;;;;;;;;;7.00;1.00;;;;;;6156888;23;19909;-73
2022/12/13 09:43:21;;;;;;;;;;;6.00;1.00;;;;;;6159013;23;19912;-73
2022/12/13 09:45:49;;;;;;;;;;;7.00;1.00;;;;;;6158397;23;19909;-75
2022/12/13 09:48:19;;;;;;;;;;;8.30;1.00;;;;;;6158527;23;19905;-74
2022/12/13 09:50:45;;;;;;;;;;;9.70;1.00;;;;;;6156979;23;19991;-74
2022/12/13 09:53:13;;;;;;;;;;;11.20;1.00;;;;;;6158376;23;19904;-74
2022/12/13 09:55:42;;;;;;;;;;;11.50;1.00;;;;;;6158401;23;19927;-75
2022/12/13 09:58:14;;;;;;;;;;;12.00;1.00;;;;;;6158547;23;19905;-74
2022/12/13 10:00:39;;;;;;;;;;;12.90;1.00;;;;;;6158413;23;19915;-75
2022/12/13 10:03:10;;;;;;;;;;;13.00;1.00;;;;;;6158297;23;19905;-75
2022/12/13 10:05:36;;;;;;;;;;;13.00;1.00;;;;;;6158600;23;19908;-74
2022/12/13 10:08:07;;;;;;;;;;;12.90;1.00;;;;;;6158233;23;19947;-74
2022/12/13 10:10:32;;;;;;;;;;;13.20;1.00;;;;;;6157941;23;19905;-75
2022/12/13 10:13:07;;;;;;;;;;;13.90;1.00;;;;;;6158718;23;19908;-75
2022/12/13 10:15:33;;;;;;;;;;;12.30;1.00;;;;;;6158123;23;19983;-77
2022/12/13 10:18:01;;;;;;;;;;;9.90;1.00;;;;;;6157990;23;19912;-77
2022/12/13 10:20:28;;;;;;;;;;;9.10;1.00;;;;;;6158367;23;20321;-75
2022/12/13 10:22:53;;;;;;;;;;;8.00;1.00;;;;;;6158117;23;19905;-76
2022/12/13 10:25:39;;;;;;;;;;;7.80;1.00;;;;;;6156491;23;19943;-75
2022/12/13 10:28:05;;;;;;;;;;;7.20;1.00;;;;;;6158185;23;19955;-76
2022/12/13 10:30:38;;;;;;;;;;;6.50;1.00;;;;;;6158149;23;19904;-74
2022/12/13 10:33:04;;;;;;;;;;;6.30;1.00;;;;;;6157973;23;19905;-76
2022/12/13 10:35:33;;;;;;;;;;;6.40;1.00;;;;;;6157508;23;19913;-77
2022/12/13 10:38:10;;;;;;;;;;;6.20;1.00;;;;;;6156082;23;19955;-76
2022/12/13 10:40:36;;;;;;;;;;;6.40;1.00;;;;;;6157819;23;19982;-76
2022/12/13 10:43:10;;;;;;;;;;;6.70;1.00;;;;;;6158014;23;19904;-75
2022/12/13 10:45:36;;;;;;;;;;;7.00;1.00;;;;;;6157910;23;19915;-75
2022/12/13 10:48:03;;;;;;;;;;;7.50;1.00;;;;;;6158613;23;19905;-76
2022/12/13 10:50:29;;;;;;;;;;;7.10;1.00;;;;;;6158539;23;19941;-78
2022/12/13 10:52:56;;;;;;;;;;;6.80;1.00;;;;;;6156246;23;20243;-76
2022/12/13 10:55:32;;;;;;;;;;;6.50;1.00;;;;;;6157876;23;19904;-76
2022/12/13 10:57:59;;;;;;;;;;;6.50;1.00;;;;;;6156307;23;20240;-76
2022/12/13 11:00:44;;;;;;;;;;;6.40;1.00;;;;;;6157718;23;19904;-77
2022/12/13 11:03:11;;;;;;;;;;;6.50;1.00;;;;;;6158218;23;19911;-76
2022/12/13 11:05:38;;;;;;;;;;;6.60;1.00;;;;;;6156969;23;19908;-77
2022/12/13 11:08:13;;;;;;;;;;;6.60;1.00;;;;;;6157638;23;19963;-76
2022/12/13 11:10:39;;;;;;;;;;;6.30;1.00;;;;;;6157797;23;19932;-75
2022/12/13 11:13:05;;;;;;;;;;;6.40;1.00;;;;;;6156185;23;19905;-77
2022/12/13 11:15:33;;;;;;;;;;;6.80;1.00;;;;;;6157635;23;19905;-77
2022/12/13 11:18:00;;;;;;;;;;;6.80;1.00;;;;;;6157702;23;20343;-76
2022/12/13 11:20:27;;;;;;;;;;;7.20;1.00;;;;;;6157851;23;19936;-76
2022/12/13 11:23:01;;;;;;;;;;;7.00;1.00;;;;;;6155869;23;19911;-77
2022/12/13 11:25:39;;;;;;;;;;;7.20;1.00;;;;;;6157755;23;20276;-76
2022/12/13 11:28:04;;;;;;;;;;;7.50;1.00;;;;;;6157618;23;19936;-76
2022/12/13 11:30:49;;;;;;;;;;;8.70;1.00;;;;;;6157376;23;19905;-77
2022/12/13 11:33:26;;;;;;;;;;;8.50;1.00;;;;;;6157619;23;20327;-75
2022/12/13 11:36:00;;;;;;;;;;;7.90;1.00;;;;;;6157458;23;20358;-75
2022/12/13 11:38:30;;;;;;;;;;;7.00;1.00;;;;;;6155897;23;19912;-76
2022/12/13 11:40:58;;;;;;;;;;;6.40;1.00;;;;;;6155816;23;20275;-75
2022/12/13 11:43:27;;;;;;;;;;;6.00;1.00;;;;;;6148120;23;19916;-74
2022/12/13 11:45:58;;;;;;;;;;;6.00;1.00;;;;;;6151710;23;19943;-74
2022/12/13 11:48:39;;;;;;;;;;;5.80;1.00;;;;;;6157242;23;19911;-75
2022/12/13 11:51:07;;;;;;;;;;;5.60;1.00;;;;;;6157213;23;20355;-76
2022/12/13 11:53:45;;;;;;;;;;;5.70;1.00;;;;;;6157095;23;19909;-76
2022/12/13 11:56:16;;;;;;;;;;;5.40;1.00;;;;;;6157416;23;19904;-76
2022/12/13 11:59:06;;;;;;;;;;;5.20;2.90;;;;;;6156937;23;19909;-76
2022/12/13 12:01:42;;;;;;;;;;;5.40;3.80;;;;;;6157291;23;19912;-77
2022/12/13 12:04:08;;;;;;;;;;;5.40;5.80;;;;;;6157036;23;19904;-76
2022/12/13 12:06:56;;;;;;;;;;;5.30;5.00;;;;;;6157008;23;19911;-76
2022/12/13 12:09:24;;;;;;;;;;;5.20;6.90;;;;;;6139676;23;19909;-76
2022/12/13 12:12:08;;;;;;;;;;;4.90;13.30;;;;;;6156933;23;19944;-76
2022/12/13 12:14:34;;;;;;;;;;;4.60;16.90;;;;;;6156961;23;19911;-76
2022/12/13 12:17:01;;;;;;;;;;;4.70;23.90;;;;;;6157025;23;19916;-77
2022/12/13 12:19:38;;;;;;;;;;;4.80;20.00;;;;;;6156832;23;19905;-76
2022/12/13 12:22:10;;;;;;;;;;;5.00;19.00;;;;;;6154979;23;19904;-76
2022/12/13 12:24:35;;;;;;;;;;;5.00;17.80;;;;;;6156922;23;19908;-76
2022/12/13 12:27:28;;;;;;;;;;;5.20;15.10;;;;;;6157186;23;19908;-76
2022/12/13 12:30:17;;;;;;;;;;;5.60;16.00;;;;;;6155271;23;19905;-77
2022/12/13 12:33:01;;;;;;;;;;;5.80;13.10;;;;;;6128681;23;19911;-76
2022/12/13 12:35:32;;;;;;;;;;;6.20;6.90;;;;;;6156799;23;19913;-76
2022/12/13 12:38:01;;;;;;;;;;;6.40;2.10;;;;;;6155407;23;19905;-77
2022/12/13 12:40:45;;;;;;;;;;;6.40;1.00;;;;;;6157323;23;19911;-76
2022/12/13 12:43:25;;;;;;;;;;;6.40;1.00;;;;;;6156862;23;19904;-76
2022/12/13 12:46:09;;;;;;;;;;;6.20;1.00;;;;;;6157327;23;19917;-76
2022/12/13 12:48:41;;;;;;;;;;;6.30;2.40;;;;;;6156885;23;19905;-76
2022/12/13 12:51:06;;;;;;;;;;;6.40;1.00;;;;;;6156775;23;19904;-76
2022/12/13 12:53:40;;;;;;;;;;;6.40;1.00;;;;;;6157132;23;19912;-77
2022/12/13 12:56:29;;;;;;;;;;;6.10;1.50;;;;;;6157104;23;19905;-76
2022/12/13 12:59:01;;;;;;;;;;;5.80;3.40;;;;;;6157157;23;19905;-76
2022/12/13 13:01:40;;;;;;;;;;;5.30;11.00;;;;;;6156937;23;19904;-77
2022/12/13 13:04:09;;;;;;;;;;;5.30;15.80;;;;;;6157228;23;19981;-77
2022/12/13 13:06:41;;;;;;;;;;;5.50;18.10;;;;;;6157221;23;19951;-76
2022/12/13 13:09:08;;;;;;;;;;;5.70;14.20;;;;;;6156953;23;20295;-75
2022/12/13 13:11:38;;;;;;;;;;;5.70;11.50;;;;;;6155141;23;19905;-75
2022/12/13 13:14:07;;;;;;;;;;;5.80;12.40;;;;;;6156827;23;19905;-76
2022/12/13 13:16:35;;;;;;;;;;;5.60;12.60;;;;;;6156628;23;19904;-77
2022/12/13 13:19:01;;;;;;;;;;;5.70;16.70;;;;;;6156767;23;19911;-76
2022/12/13 13:21:30;;;;;;;;;;;5.60;17.10;;;;;;6156982;23;20316;-76
2022/12/13 13:24:19;;;;;;;;;;;5.60;16.50;;;;;;6155280;23;19912;-77
2022/12/13 13:26:49;;;;;;;;;;;5.90;15.70;;;;;;6144999;23;19909;-77
2022/12/13 13:29:21;;;;;;;;;;;5.90;8.70;;;;;;6157023;23;20382;-76
2022/12/13 13:32:15;;;;;;;;;;;5.80;10.70;;;;;;6156757;23;19983;-76
2022/12/13 13:34:42;;;;;;;;;;;5.90;10.60;;;;;;6153469;23;19909;-76
2022/12/13 13:37:22;;;;;;;;;;;6.10;11.70;;;;;;6156061;23;19917;-76
2022/12/13 13:39:58;;;;;;;;;;;6.40;10.00;;;;;;6156759;23;20027;-75
2022/12/13 13:42:28;;;;;;;;;;;6.80;1.00;;;;;;6156656;23;19928;-77
2022/12/13 13:44:55;;;;;;;;;;;7.40;1.00;;;;;;6156096;23;20239;-76
2022/12/13 13:47:23;;;;;;;;;;;9.10;1.00;;;;;;6158473;23;20310;-76
2022/12/13 13:50:07;;;;;;;;;;;12.10;1.00;;;;;;6158515;23;20330;-75
2022/12/13 13:52:44;;;;;;;;;;;14.00;1.00;;;;;;6158231;23;19912;-76
2022/12/13 13:55:21;;;;;;;;;;;14.70;1.00;;;;;;6158411;23;19959;-77
2022/12/13 13:58:11;;;;;;;;;;;11.80;1.00;;;;;;6158385;23;19905;-76
2022/12/13 14:00:55;;;;;;;;;;;9.80;1.00;;;;;;6158392;23;19955;-75
2022/12/13 14:03:27;;;;;;;;;;;8.90;1.00;;;;;;6158213;23;19912;-76
2022/12/13 14:06:07;;;;;;;;;;;8.20;1.00;;;;;;6158757;23;19960;-76
2022/12/13 14:08:36;;;;;;;;;;;7.70;1.00;;;;;;6158784;23;19912;-75
2022/12/13 14:11:16;;;;;;;;;;;8.90;1.00;;;;;;6158680;23;19987;-75
2022/12/13 14:13:50;;;;;;;;;;;9.00;1.00;;;;;;6158590;23;19912;-77
2022/12/13 14:16:28;;;;;;;;;;;8.30;1.00;;;;;;6158133;23;19955;-75
2022/12/13 14:19:12;;;;;;;;;;;7.80;1.00;;;;;;6158311;23;19928;-76
2022/12/13 14:21:56;;;;;;;;;;;7.70;1.00;;;;;;6158233;23;19904;-77
2022/12/13 14:24:40;;;;;;;;;;;9.90;1.00;;;;;;6158057;23;19905;-76
2022/12/13 14:27:11;;;;;;;;;;;11.80;1.00;;;;;;6158228;23;19904;-76
2022/12/13 14:29:39;;;;;;;;;;;13.20;1.00;;;;;;6158318;23;20307;-77
2022/12/13 14:32:10;;;;;;;;;;;12.20;1.00;;;;;;6158075;23;19905;-75
2022/12/13 14:34:36;;;;;;;;;;;10.30;1.00;;;;;;6157839;23;19912;-76
2022/12/13 14:37:05;;;;;;;;;;;9.10;1.00;;;;;;6157268;23;19916;-76
2022/12/13 14:39:33;;;;;;;;;;;8.40;1.00;;;;;;6158306;23;19908;-76